sensor_id;sensor_type;location;lat;lon;timestamp;pressure;altitude;pressure_sealevel;temperature;humidity
17362;BME280;8798;51.938;4.348;2023-03-14T00:00:18;98719.38;;;12.78;66.25
17362;BME280;8798;51.938;4.348;2023-03-14T00:02:46;98712.56;;;12.76;66.85
17362;BME280;8798;51.938;4.348;2023-03-14T00:05:19;98711.75;;;12.75;66.54
17362;BME280;8798;51.938;4.348;2023-03-14T00:07:47;98713.03;;;12.73;66.43
17362;BME280;8798;51.938;4.348;2023-03-14T00:10:15;98701.63;;;12.70;66.51
17362;BME280;8798;51.938;4.348;2023-03-14T00:12:45;98689.44;;;12.68;66.73
17362;BME280;8798;51.938;4.348;2023-03-14T00:15:13;98685.31;;;12.65;66.32
17362;BME280;8798;51.938;4.348;2023-03-14T00:17:42;98678.72;;;12.61;66.94
17362;BME280;8798;51.938;4.348;2023-03-14T00:20:11;98656.16;;;12.56;66.58
17362;BME280;8798;51.938;4.348;2023-03-14T00:22:40;98644.19;;;12.52;66.64
17362;BME280;8798;51.938;4.348;2023-03-14T00:25:09;98628.69;;;12.47;67.32
17362;BME280;8798;51.938;4.348;2023-03-14T00:27:37;98613.19;;;12.42;67.18
17362;BME280;8798;51.938;4.348;2023-03-14T00:30:08;98595.81;;;12.38;67.09
17362;BME280;8798;51.938;4.348;2023-03-14T00:32:36;98586.56;;;12.34;67.23
17362;BME280;8798;51.938;4.348;2023-03-14T00:35:05;98588.63;;;12.32;67.59
17362;BME280;8798;51.938;4.348;2023-03-14T00:37:33;98581.00;;;12.29;67.02
17362;BME280;8798;51.938;4.348;2023-03-14T00:40:00;98581.00;;;12.29;67.55
17362;BME280;8798;51.938;4.348;2023-03-14T00:42:31;98582.28;;;12.26;67.35
17362;BME280;8798;51.938;4.348;2023-03-14T00:44:59;98558.91;;;12.20;67.61
17362;BME280;8798;51.938;4.348;2023-03-14T00:47:28;98559.09;;;12.19;67.31
17362;BME280;8798;51.938;4.348;2023-03-14T00:49:56;98545.50;;;12.14;67.91
17362;BME280;8798;51.938;4.348;2023-03-14T00:52:24;98550.88;;;12.14;67.50
17362;BME280;8798;51.938;4.348;2023-03-14T00:54:52;98558.13;;;12.13;67.56
17362;BME280;8798;51.938;4.348;2023-03-14T00:57:20;98544.31;;;12.10;68.18
17362;BME280;8798;51.938;4.348;2023-03-14T00:59:47;98546.59;;;12.06;68.30
17362;BME280;8798;51.938;4.348;2023-03-14T01:02:15;98530.06;;;12.02;68.62
17362;BME280;8798;51.938;4.348;2023-03-14T01:04:47;98529.47;;;12.00;68.35
17362;BME280;8798;51.938;4.348;2023-03-14T01:07:15;98531.34;;;12.00;68.20
17362;BME280;8798;51.938;4.348;2023-03-14T01:09:42;98533.22;;;11.99;68.45
17362;BME280;8798;51.938;4.348;2023-03-14T01:12:10;98526.41;;;11.97;68.55
17362;BME280;8798;51.938;4.348;2023-03-14T01:14:38;98525.78;;;11.95;68.38
17362;BME280;8798;51.938;4.348;2023-03-14T01:17:06;98531.38;;;11.93;68.72
17362;BME280;8798;51.938;4.348;2023-03-14T01:19:34;98528.88;;;11.92;69.03
17362;BME280;8798;51.938;4.348;2023-03-14T01:22:03;98548.56;;;11.92;68.82
17362;BME280;8798;51.938;4.348;2023-03-14T01:24:32;98545.03;;;11.92;68.66
17362;BME280;8798;51.938;4.348;2023-03-14T01:27:00;98555.59;;;11.93;69.30
17362;BME280;8798;51.938;4.348;2023-03-14T01:29:29;98570.47;;;11.96;68.84
17362;BME280;8798;51.938;4.348;2023-03-14T01:31:56;98578.34;;;11.97;69.30
17362;BME280;8798;51.938;4.348;2023-03-14T01:34:24;98590.72;;;11.98;69.43
17362;BME280;8798;51.938;4.348;2023-03-14T01:36:52;98594.03;;;12.00;69.41
17362;BME280;8798;51.938;4.348;2023-03-14T01:39:21;98609.38;;;12.00;69.43
17362;BME280;8798;51.938;4.348;2023-03-14T01:41:49;98606.66;;;12.00;69.45
17362;BME280;8798;51.938;4.348;2023-03-14T01:44:17;98609.38;;;12.00;69.09
17362;BME280;8798;51.938;4.348;2023-03-14T01:46:45;98608.75;;;11.98;69.62
17362;BME280;8798;51.938;4.348;2023-03-14T01:49:18;98628.19;;;12.00;69.89
17362;BME280;8798;51.938;4.348;2023-03-14T01:51:52;98622.81;;;12.00;69.57
17362;BME280;8798;51.938;4.348;2023-03-14T01:54:27;98619.50;;;11.98;69.25
17362;BME280;8798;51.938;4.348;2023-03-14T01:57:01;98617.88;;;11.97;69.33
17362;BME280;8798;51.938;4.348;2023-03-14T01:59:31;98614.56;;;11.95;69.46
17362;BME280;8798;51.938;4.348;2023-03-14T02:02:00;98624.28;;;11.96;69.68
17362;BME280;8798;51.938;4.348;2023-03-14T02:04:31;98627.78;;;11.96;69.83
17362;BME280;8798;51.938;4.348;2023-03-14T02:07:04;98639.41;;;11.97;69.55
17362;BME280;8798;51.938;4.348;2023-03-14T02:09:34;98642.91;;;11.97;70.05
17362;BME280;8798;51.938;4.348;2023-03-14T02:12:04;98637.72;;;11.96;69.89
17362;BME280;8798;51.938;4.348;2023-03-14T02:14:34;98641.25;;;11.96;70.08
17362;BME280;8798;51.938;4.348;2023-03-14T02:17:04;98648.72;;;11.94;69.73
17362;BME280;8798;51.938;4.348;2023-03-14T02:19:50;98642.50;;;11.94;70.53
17362;BME280;8798;51.938;4.348;2023-03-14T02:22:23;98646.03;;;11.94;70.30
17362;BME280;8798;51.938;4.348;2023-03-14T02:24:57;98648.72;;;11.94;69.96
17362;BME280;8798;51.938;4.348;2023-03-14T02:27:31;98646.25;;;11.93;70.49
17362;BME280;8798;51.938;4.348;2023-03-14T02:30:02;98636.75;;;11.90;70.64
17362;BME280;8798;51.938;4.348;2023-03-14T02:32:33;98649.13;;;11.91;70.25
17362;BME280;8798;51.938;4.348;2023-03-14T02:35:06;98658.03;;;11.92;70.36
17362;BME280;8798;51.938;4.348;2023-03-14T02:37:41;98658.88;;;11.92;70.29
17362;BME280;8798;51.938;4.348;2023-03-14T02:40:10;98651.00;;;11.91;70.09
17362;BME280;8798;51.938;4.348;2023-03-14T02:42:39;98643.53;;;11.86;70.52
17362;BME280;8798;51.938;4.348;2023-03-14T02:45:28;98633.22;;;11.83;70.82
17362;BME280;8798;51.938;4.348;2023-03-14T02:48:02;98624.53;;;11.81;70.85
17362;BME280;8798;51.938;4.348;2023-03-14T02:50:33;98634.28;;;11.82;70.89
17362;BME280;8798;51.938;4.348;2023-03-14T02:53:02;98628.91;;;11.82;70.85
17362;BME280;8798;51.938;4.348;2023-03-14T02:55:29;98632.59;;;11.81;70.89
17362;BME280;8798;51.938;4.348;2023-03-14T02:57:59;98635.31;;;11.81;71.11
17362;BME280;8798;51.938;4.348;2023-03-14T03:00:26;98645.03;;;11.82;70.39
17362;BME280;8798;51.938;4.348;2023-03-14T03:02:54;98638.22;;;11.79;70.44
17362;BME280;8798;51.938;4.348;2023-03-14T03:05:22;98634.06;;;11.77;71.07
17362;BME280;8798;51.938;4.348;2023-03-14T03:07:50;98634.06;;;11.77;71.41
17362;BME280;8798;51.938;4.348;2023-03-14T03:10:18;98631.38;;;11.77;70.97
17362;BME280;8798;51.938;4.348;2023-03-14T03:12:46;98641.94;;;11.78;70.62
17362;BME280;8798;51.938;4.348;2023-03-14T03:15:15;98652.69;;;11.78;71.41
17362;BME280;8798;51.938;4.348;2023-03-14T03:17:43;98651.44;;;11.81;70.72
17362;BME280;8798;51.938;4.348;2023-03-14T03:20:11;98664.88;;;11.81;71.34
17362;BME280;8798;51.938;4.348;2023-03-14T03:22:39;98667.56;;;11.81;71.07
17362;BME280;8798;51.938;4.348;2023-03-14T03:25:08;98672.75;;;11.82;71.45
17362;BME280;8798;51.938;4.348;2023-03-14T03:27:37;98673.78;;;11.81;71.04
17362;BME280;8798;51.938;4.348;2023-03-14T03:30:06;98667.81;;;11.79;71.10
17362;BME280;8798;51.938;4.348;2023-03-14T03:32:36;98665.13;;;11.79;70.88
17362;BME280;8798;51.938;4.348;2023-03-14T03:35:04;98683.72;;;11.81;71.58
17362;BME280;8798;51.938;4.348;2023-03-14T03:37:33;98680.00;;;11.82;70.87
17362;BME280;8798;51.938;4.348;2023-03-14T03:40:02;98686.41;;;11.81;71.17
17362;BME280;8798;51.938;4.348;2023-03-14T03:42:32;98690.75;;;11.82;71.78
17362;BME280;8798;51.938;4.348;2023-03-14T03:45:01;98688.91;;;11.82;71.53
17362;BME280;8798;51.938;4.348;2023-03-14T03:47:30;98701.09;;;11.85;71.22
17362;BME280;8798;51.938;4.348;2023-03-14T03:49:59;98693.22;;;11.83;70.95
17362;BME280;8798;51.938;4.348;2023-03-14T03:52:27;98688.66;;;11.84;71.40
17362;BME280;8798;51.938;4.348;2023-03-14T03:54:55;98708.09;;;11.86;71.68
17362;BME280;8798;51.938;4.348;2023-03-14T03:57:23;98714.53;;;11.85;71.51
17362;BME280;8798;51.938;4.348;2023-03-14T03:59:51;98703.97;;;11.83;71.49
17362;BME280;8798;51.938;4.348;2023-03-14T04:02:19;98705.84;;;11.83;71.50
17362;BME280;8798;51.938;4.348;2023-03-14T04:04:47;98696.16;;;11.82;71.78
17362;BME280;8798;51.938;4.348;2023-03-14T04:07:16;98692.84;;;11.80;72.00
17362;BME280;8798;51.938;4.348;2023-03-14T04:09:44;98682.47;;;11.77;71.96
17362;BME280;8798;51.938;4.348;2023-03-14T04:12:12;98673.81;;;11.75;71.31
17362;BME280;8798;51.938;4.348;2023-03-14T04:14:39;98667.22;;;11.71;72.01
17362;BME280;8798;51.938;4.348;2023-03-14T04:17:08;98649.03;;;11.66;72.30
17362;BME280;8798;51.938;4.348;2023-03-14T04:19:35;98622.16;;;11.59;71.99
17362;BME280;8798;51.938;4.348;2023-03-14T04:22:03;98609.38;;;11.55;71.64
17362;BME280;8798;51.938;4.348;2023-03-14T04:24:32;98587.06;;;11.48;71.79
17362;BME280;8798;51.938;4.348;2023-03-14T04:27:00;98574.88;;;11.45;72.06
17362;BME280;8798;51.938;4.348;2023-03-14T04:29:28;98554.00;;;11.40;72.19
17362;BME280;8798;51.938;4.348;2023-03-14T04:31:56;98549.66;;;11.39;72.44
17362;BME280;8798;51.938;4.348;2023-03-14T04:34:24;98561.47;;;11.38;72.43
17362;BME280;8798;51.938;4.348;2023-03-14T04:36:51;98559.59;;;11.39;72.60
17362;BME280;8798;51.938;4.348;2023-03-14T04:39:19;98573.84;;;11.39;72.92
17362;BME280;8798;51.938;4.348;2023-03-14T04:41:48;98567.03;;;11.37;72.48
17362;BME280;8798;51.938;4.348;2023-03-14T04:44:16;98540.81;;;11.32;72.46
17362;BME280;8798;51.938;4.348;2023-03-14T04:46:44;98535.03;;;11.29;73.08
17362;BME280;8798;51.938;4.348;2023-03-14T04:49:12;98528.44;;;11.25;72.50
17362;BME280;8798;51.938;4.348;2023-03-14T04:51:40;98527.00;;;11.22;73.37
17362;BME280;8798;51.938;4.348;2023-03-14T04:54:08;98507.00;;;11.18;72.98
17362;BME280;8798;51.938;4.348;2023-03-14T04:56:36;98490.88;;;11.11;73.13
17362;BME280;8798;51.938;4.348;2023-03-14T04:59:05;98476.47;;;11.06;73.14
17362;BME280;8798;51.938;4.348;2023-03-14T05:01:35;98459.94;;;11.02;73.89
17362;BME280;8798;51.938;4.348;2023-03-14T05:04:03;98444.69;;;10.96;73.25
17362;BME280;8798;51.938;4.348;2023-03-14T05:06:30;98423.41;;;10.88;73.81
17362;BME280;8798;51.938;4.348;2023-03-14T05:08:58;98415.81;;;10.85;73.76
17362;BME280;8798;51.938;4.348;2023-03-14T05:11:26;98390.84;;;10.77;73.77
17362;BME280;8798;51.938;4.348;2023-03-14T05:13:54;98385.91;;;10.74;74.11
17362;BME280;8798;51.938;4.348;2023-03-14T05:16:23;98393.97;;;10.74;73.65
17362;BME280;8798;51.938;4.348;2023-03-14T05:18:52;98389.84;;;10.72;74.45
17362;BME280;8798;51.938;4.348;2023-03-14T05:21:20;98385.53;;;10.71;74.41
17362;BME280;8798;51.938;4.348;2023-03-14T05:23:47;98390.28;;;10.69;74.67
17362;BME280;8798;51.938;4.348;2023-03-14T05:26:15;98376.44;;;10.65;74.30
17362;BME280;8798;51.938;4.348;2023-03-14T05:28:43;98306.13;;;10.43;74.52
17362;BME280;8798;51.938;4.348;2023-03-14T05:31:11;98194.84;;;10.14;74.49
17362;BME280;8798;51.938;4.348;2023-03-14T05:33:41;98116.34;;;9.94;74.92
17362;BME280;8798;51.938;4.348;2023-03-14T05:36:09;98065.94;;;9.77;74.92
17362;BME280;8798;51.938;4.348;2023-03-14T05:38:37;98025.22;;;9.62;75.25
17362;BME280;8798;51.938;4.348;2023-03-14T05:41:05;98001.56;;;9.52;75.11
17362;BME280;8798;51.938;4.348;2023-03-14T05:43:33;97983.66;;;9.46;75.13
17362;BME280;8798;51.938;4.348;2023-03-14T05:46:01;97957.34;;;9.36;75.41
17362;BME280;8798;51.938;4.348;2023-03-14T05:48:29;97932.88;;;9.26;75.68
17362;BME280;8798;51.938;4.348;2023-03-14T05:50:58;97940.09;;;9.25;75.45
17362;BME280;8798;51.938;4.348;2023-03-14T05:53:26;97953.69;;;9.24;75.34
17362;BME280;8798;51.938;4.348;2023-03-14T05:55:56;97948.19;;;9.19;75.90
17362;BME280;8798;51.938;4.348;2023-03-14T05:58:24;97947.78;;;9.15;75.97
17362;BME280;8798;51.938;4.348;2023-03-14T06:00:51;97933.81;;;9.07;75.95
17362;BME280;8798;51.938;4.348;2023-03-14T06:03:19;97910.19;;;8.97;76.03
17362;BME280;8798;51.938;4.348;2023-03-14T06:05:49;97895.00;;;8.91;76.49
17362;BME280;8798;51.938;4.348;2023-03-14T06:08:19;97899.13;;;8.87;76.53
17362;BME280;8798;51.938;4.348;2023-03-14T06:10:47;97904.94;;;8.83;76.75
17362;BME280;8798;51.938;4.348;2023-03-14T06:13:15;97905.38;;;8.80;76.68
17362;BME280;8798;51.938;4.348;2023-03-14T06:15:43;97917.91;;;8.80;76.72
17362;BME280;8798;51.938;4.348;2023-03-14T06:18:11;97929.66;;;8.79;77.07
17362;BME280;8798;51.938;4.348;2023-03-14T06:20:40;97921.44;;;8.74;76.90
17362;BME280;8798;51.938;4.348;2023-03-14T06:23:09;97917.53;;;8.70;77.01
17362;BME280;8798;51.938;4.348;2023-03-14T06:25:38;97885.50;;;8.56;77.48
17362;BME280;8798;51.938;4.348;2023-03-14T06:28:06;97888.63;;;8.53;77.24
17362;BME280;8798;51.938;4.348;2023-03-14T06:30:37;97900.31;;;8.52;77.89
17362;BME280;8798;51.938;4.348;2023-03-14T06:33:07;97928.75;;;8.53;78.19
17362;BME280;8798;51.938;4.348;2023-03-14T06:35:36;97942.94;;;8.54;77.96
17362;BME280;8798;51.938;4.348;2023-03-14T06:38:03;97958.75;;;8.55;78.23
17362;BME280;8798;51.938;4.348;2023-03-14T06:40:31;97976.03;;;8.53;78.40
17362;BME280;8798;51.938;4.348;2023-03-14T06:43:00;97967.63;;;8.49;78.79
17362;BME280;8798;51.938;4.348;2023-03-14T06:45:28;97976.91;;;8.47;79.09
17362;BME280;8798;51.938;4.348;2023-03-14T06:47:56;98002.41;;;8.49;79.10
17362;BME280;8798;51.938;4.348;2023-03-14T06:50:24;98017.41;;;8.50;79.50
17362;BME280;8798;51.938;4.348;2023-03-14T06:52:52;98020.75;;;8.46;79.03
17362;BME280;8798;51.938;4.348;2023-03-14T06:55:20;98027.91;;;8.45;79.66
17362;BME280;8798;51.938;4.348;2023-03-14T06:57:48;98026.06;;;8.39;80.15
17362;BME280;8798;51.938;4.348;2023-03-14T07:00:18;98039.44;;;8.39;79.52
17362;BME280;8798;51.938;4.348;2023-03-14T07:02:46;98052.00;;;8.38;79.64
17362;BME280;8798;51.938;4.348;2023-03-14T07:05:14;98073.19;;;8.40;80.30
17362;BME280;8798;51.938;4.348;2023-03-14T07:07:42;98107.34;;;8.45;80.53
17362;BME280;8798;51.938;4.348;2023-03-14T07:10:10;98125.66;;;8.48;79.85
17362;BME280;8798;51.938;4.348;2023-03-14T07:12:38;98152.03;;;8.51;80.95
17362;BME280;8798;51.938;4.348;2023-03-14T07:15:07;98186.16;;;8.55;80.86
17362;BME280;8798;51.938;4.348;2023-03-14T07:17:45;98196.03;;;8.55;80.42
17362;BME280;8798;51.938;4.348;2023-03-14T07:20:14;98201.63;;;8.53;81.20
17362;BME280;8798;51.938;4.348;2023-03-14T07:22:42;98213.56;;;8.51;80.85
17362;BME280;8798;51.938;4.348;2023-03-14T07:25:10;98232.69;;;8.54;80.83
17362;BME280;8798;51.938;4.348;2023-03-14T07:27:38;98236.41;;;8.53;80.85
17362;BME280;8798;51.938;4.348;2023-03-14T07:30:07;98255.13;;;8.53;80.82
17362;BME280;8798;51.938;4.348;2023-03-14T07:32:35;98295.47;;;8.58;81.79
17362;BME280;8798;51.938;4.348;2023-03-14T07:35:06;98311.09;;;8.61;81.50
17362;BME280;8798;51.938;4.348;2023-03-14T07:37:34;98334.16;;;8.63;81.68
17362;BME280;8798;51.938;4.348;2023-03-14T07:40:02;98344.66;;;8.64;81.86
17362;BME280;8798;51.938;4.348;2023-03-14T07:42:31;98391.19;;;8.70;81.39
17362;BME280;8798;51.938;4.348;2023-03-14T07:44:59;98387.88;;;8.68;81.54
17362;BME280;8798;51.938;4.348;2023-03-14T07:47:27;98376.16;;;8.62;82.32
17362;BME280;8798;51.938;4.348;2023-03-14T07:49:55;98378.41;;;8.58;82.28
17362;BME280;8798;51.938;4.348;2023-03-14T07:52:24;98335.53;;;8.45;82.19
17362;BME280;8798;51.938;4.348;2023-03-14T07:54:52;98299.66;;;8.33;82.52
17362;BME280;8798;51.938;4.348;2023-03-14T07:57:36;98300.91;;;8.30;82.21
17362;BME280;8798;51.938;4.348;2023-03-14T08:00:06;98300.69;;;8.25;82.59
17362;BME280;8798;51.938;4.348;2023-03-14T08:02:42;98299.22;;;8.23;82.84
17362;BME280;8798;51.938;4.348;2023-03-14T08:05:11;98310.16;;;8.21;82.40
17362;BME280;8798;51.938;4.348;2023-03-14T08:07:40;98277.81;;;8.09;82.68
17362;BME280;8798;51.938;4.348;2023-03-14T08:10:09;98254.75;;;8.02;83.05
17362;BME280;8798;51.938;4.348;2023-03-14T08:12:37;98260.69;;;7.97;83.08
17362;BME280;8798;51.938;4.348;2023-03-14T08:15:06;98239.47;;;7.89;83.04
17362;BME280;8798;51.938;4.348;2023-03-14T08:17:33;98198.69;;;7.73;83.49
17362;BME280;8798;51.938;4.348;2023-03-14T08:20:01;98120.53;;;7.51;82.51
17362;BME280;8798;51.938;4.348;2023-03-14T08:22:33;98113.34;;;7.45;82.37
17362;BME280;8798;51.938;4.348;2023-03-14T08:25:02;98103.66;;;7.38;83.17
17362;BME280;8798;51.938;4.348;2023-03-14T08:27:30;98126.66;;;7.39;82.91
17362;BME280;8798;51.938;4.348;2023-03-14T08:29:58;98153.78;;;7.42;82.92
17362;BME280;8798;51.938;4.348;2023-03-14T08:32:26;98182.97;;;7.44;83.68
17362;BME280;8798;51.938;4.348;2023-03-14T08:37:54;98219.53;;;7.43;83.42
17362;BME280;8798;51.938;4.348;2023-03-14T08:40:24;98216.63;;;7.38;83.26
17362;BME280;8798;51.938;4.348;2023-03-14T08:42:52;98165.38;;;7.21;83.17
17362;BME280;8798;51.938;4.348;2023-03-14T08:45:20;98153.03;;;7.14;83.64
17362;BME280;8798;51.938;4.348;2023-03-14T08:47:48;98165.56;;;7.13;83.57
17362;BME280;8798;51.938;4.348;2023-03-14T08:50:16;98197.19;;;7.16;84.10
17362;BME280;8798;51.938;4.348;2023-03-14T08:52:44;98225.16;;;7.20;83.37
17362;BME280;8798;51.938;4.348;2023-03-14T08:55:12;98275.91;;;7.27;83.83
17362;BME280;8798;51.938;4.348;2023-03-14T08:57:41;98301.41;;;7.29;84.16
17362;BME280;8798;51.938;4.348;2023-03-14T09:00:10;98326.91;;;7.32;83.92
17362;BME280;8798;51.938;4.348;2023-03-14T09:02:41;98389.81;;;7.41;83.86
17362;BME280;8798;51.938;4.348;2023-03-14T09:05:10;98458.34;;;7.56;83.93
17362;BME280;8798;51.938;4.348;2023-03-14T09:07:38;98500.94;;;7.64;84.06
17362;BME280;8798;51.938;4.348;2023-03-14T09:10:08;98529.97;;;7.67;84.35
17362;BME280;8798;51.938;4.348;2023-03-14T09:12:36;98573.63;;;7.74;84.52
17362;BME280;8798;51.938;4.348;2023-03-14T09:15:06;98659.72;;;7.91;84.08
17362;BME280;8798;51.938;4.348;2023-03-14T09:17:34;98722.38;;;8.03;83.93
17362;BME280;8798;51.938;4.348;2023-03-14T09:20:02;98802.38;;;8.19;84.31
17362;BME280;8798;51.938;4.348;2023-03-14T09:22:33;98824.19;;;8.23;84.48
17362;BME280;8798;51.938;4.348;2023-03-14T09:25:02;98850.59;;;8.26;84.32
17362;BME280;8798;51.938;4.348;2023-03-14T09:27:30;98839.44;;;8.23;84.34
17362;BME280;8798;51.938;4.348;2023-03-14T09:29:58;98827.63;;;8.17;84.34
17362;BME280;8798;51.938;4.348;2023-03-14T09:32:30;98851.31;;;8.20;84.46
17362;BME280;8798;51.938;4.348;2023-03-14T09:35:05;98882.69;;;8.26;83.95
17362;BME280;8798;51.938;4.348;2023-03-14T09:37:33;98862.41;;;8.17;83.86
17362;BME280;8798;51.938;4.348;2023-03-14T09:40:01;98838.63;;;8.07;84.02
17362;BME280;8798;51.938;4.348;2023-03-14T09:42:36;98818.00;;;8.01;83.75
17362;BME280;8798;51.938;4.348;2023-03-14T09:45:09;98791.53;;;7.91;84.57
17362;BME280;8798;51.938;4.348;2023-03-14T09:47:40;98746.28;;;7.75;84.58
17362;BME280;8798;51.938;4.348;2023-03-14T09:50:26;98681.94;;;7.55;84.29
17362;BME280;8798;51.938;4.348;2023-03-14T09:52:58;98664.97;;;7.48;83.69
17362;BME280;8798;51.938;4.348;2023-03-14T09:55:29;98666.56;;;7.42;83.86
17362;BME280;8798;51.938;4.348;2023-03-14T09:57:59;98679.72;;;7.44;83.75
17362;BME280;8798;51.938;4.348;2023-03-14T10:00:29;98711.03;;;7.50;83.80
17362;BME280;8798;51.938;4.348;2023-03-14T10:03:14;98780.88;;;7.62;84.55
17362;BME280;8798;51.938;4.348;2023-03-14T10:05:47;98859.84;;;7.79;83.89
17362;BME280;8798;51.938;4.348;2023-03-14T10:08:15;98907.69;;;7.89;83.89
17362;BME280;8798;51.938;4.348;2023-03-14T10:10:43;98958.38;;;7.97;83.67
17362;BME280;8798;51.938;4.348;2023-03-14T10:13:15;98971.53;;;7.98;84.16
17362;BME280;8798;51.938;4.348;2023-03-14T10:15:48;99016.13;;;8.06;84.17
17362;BME280;8798;51.938;4.348;2023-03-14T10:18:20;99041.47;;;8.10;84.24
17362;BME280;8798;51.938;4.348;2023-03-14T10:21:03;99098.19;;;8.21;84.16
17362;BME280;8798;51.938;4.348;2023-03-14T10:23:34;99143.63;;;8.29;84.31
17362;BME280;8798;51.938;4.348;2023-03-14T10:26:08;99209.72;;;8.43;84.38
17362;BME280;8798;51.938;4.348;2023-03-14T10:28:39;99233.28;;;8.48;84.42
17362;BME280;8798;51.938;4.348;2023-03-14T10:31:07;99234.31;;;8.47;83.99
17362;BME280;8798;51.938;4.348;2023-03-14T10:33:38;99240.84;;;8.44;83.95
17362;BME280;8798;51.938;4.348;2023-03-14T10:36:16;99271.59;;;8.48;84.03
17362;BME280;8798;51.938;4.348;2023-03-14T10:38:45;99277.56;;;8.50;83.72
17362;BME280;8798;51.938;4.348;2023-03-14T10:41:16;99284.78;;;8.50;83.61
17362;BME280;8798;51.938;4.348;2023-03-14T10:43:44;99303.16;;;8.53;83.13
17362;BME280;8798;51.938;4.348;2023-03-14T10:46:15;99309.53;;;8.52;83.29
17362;BME280;8798;51.938;4.348;2023-03-14T10:48:47;99303.72;;;8.48;83.15
17362;BME280;8798;51.938;4.348;2023-03-14T10:51:19;99265.78;;;8.36;83.48
17362;BME280;8798;51.938;4.348;2023-03-14T10:53:56;99275.66;;;8.36;83.26
17362;BME280;8798;51.938;4.348;2023-03-14T10:56:26;99311.41;;;8.43;83.29
17362;BME280;8798;51.938;4.348;2023-03-14T10:58:57;99353.53;;;8.49;83.03
17362;BME280;8798;51.938;4.348;2023-03-14T11:01:36;99379.56;;;8.55;82.92
17362;BME280;8798;51.938;4.348;2023-03-14T11:04:15;99418.19;;;8.61;82.88
17362;BME280;8798;51.938;4.348;2023-03-14T11:06:53;99408.03;;;8.56;83.00
17362;BME280;8798;51.938;4.348;2023-03-14T11:09:29;99356.06;;;8.43;82.95
17362;BME280;8798;51.938;4.348;2023-03-14T11:12:08;99346.88;;;8.37;82.52
17362;BME280;8798;51.938;4.348;2023-03-14T11:14:46;99323.66;;;8.29;82.26
17362;BME280;8798;51.938;4.348;2023-03-14T11:17:23;99318.84;;;8.25;83.08
17362;BME280;8798;51.938;4.348;2023-03-14T11:20:08;99342.56;;;8.28;82.62
17362;BME280;8798;51.938;4.348;2023-03-14T11:22:46;99361.94;;;8.30;82.53
17362;BME280;8798;51.938;4.348;2023-03-14T11:25:21;99382.84;;;8.34;82.61
17362;BME280;8798;51.938;4.348;2023-03-14T11:28:00;99412.44;;;8.41;82.10
17362;BME280;8798;51.938;4.348;2023-03-14T11:30:35;99458.06;;;8.48;82.07
17362;BME280;8798;51.938;4.348;2023-03-14T11:33:08;99500.88;;;8.56;82.49
17362;BME280;8798;51.938;4.348;2023-03-14T11:35:45;99531.44;;;8.61;81.79
17362;BME280;8798;51.938;4.348;2023-03-14T11:38:25;99541.13;;;8.63;81.77
17362;BME280;8798;51.938;4.348;2023-03-14T11:40:57;99563.22;;;8.65;81.71
17362;BME280;8798;51.938;4.348;2023-03-14T11:43:29;99591.13;;;8.70;81.97
17362;BME280;8798;51.938;4.348;2023-03-14T11:46:05;99629.28;;;8.80;81.72
17362;BME280;8798;51.938;4.348;2023-03-14T11:48:39;99657.22;;;8.86;81.37
17362;BME280;8798;51.938;4.348;2023-03-14T11:51:17;99687.16;;;8.90;81.32
17362;BME280;8798;51.938;4.348;2023-03-14T11:53:55;99722.97;;;8.97;81.14
17362;BME280;8798;51.938;4.348;2023-03-14T11:56:29;99760.47;;;9.05;81.07
17362;BME280;8798;51.938;4.348;2023-03-14T11:59:02;99787.59;;;9.10;81.04
17362;BME280;8798;51.938;4.348;2023-03-14T12:01:40;99801.47;;;9.14;80.92
17362;BME280;8798;51.938;4.348;2023-03-14T12:04:17;99795.63;;;9.10;80.54
17362;BME280;8798;51.938;4.348;2023-03-14T12:06:49;99798.31;;;9.10;80.81
17362;BME280;8798;51.938;4.348;2023-03-14T12:09:18;99810.69;;;9.11;80.63
17362;BME280;8798;51.938;4.348;2023-03-14T12:11:48;99818.72;;;9.11;80.46
17362;BME280;8798;51.938;4.348;2023-03-14T12:14:21;99881.53;;;9.25;80.62
17362;BME280;8798;51.938;4.348;2023-03-14T12:16:54;99884.22;;;9.25;80.69
17362;BME280;8798;51.938;4.348;2023-03-14T12:19:32;99853.06;;;9.16;79.67
17362;BME280;8798;51.938;4.348;2023-03-14T12:22:08;99868.78;;;9.19;80.27
17362;BME280;8798;51.938;4.348;2023-03-14T12:24:46;99887.19;;;9.22;79.90
17362;BME280;8798;51.938;4.348;2023-03-14T12:27:41;99892.56;;;9.22;79.89
17362;BME280;8798;51.938;4.348;2023-03-14T12:30:18;99879.69;;;9.17;79.60
17362;BME280;8798;51.938;4.348;2023-03-14T12:33:18;99871.97;;;9.14;79.81
17362;BME280;8798;51.938;4.348;2023-03-14T12:35:49;99901.59;;;9.21;79.44
17362;BME280;8798;51.938;4.348;2023-03-14T12:38:24;99910.47;;;9.21;79.31
17362;BME280;8798;51.938;4.348;2023-03-14T12:41:01;99895.09;;;9.15;79.31
17362;BME280;8798;51.938;4.348;2023-03-14T12:43:31;99835.13;;;9.00;79.20
17362;BME280;8798;51.938;4.348;2023-03-14T12:46:21;99829.94;;;8.98;79.03
17362;BME280;8798;51.938;4.348;2023-03-14T12:49:03;99849.38;;;9.00;79.21
17362;BME280;8798;51.938;4.348;2023-03-14T12:51:35;99833.94;;;8.94;78.98
17362;BME280;8798;51.938;4.348;2023-03-14T12:54:27;99853.22;;;8.98;79.12
17362;BME280;8798;51.938;4.348;2023-03-14T12:57:06;99888.88;;;9.07;78.26
17362;BME280;8798;51.938;4.348;2023-03-14T12:59:37;99908.78;;;9.12;78.83
17362;BME280;8798;51.938;4.348;2023-03-14T13:02:25;99959.72;;;9.20;78.64
17362;BME280;8798;51.938;4.348;2023-03-14T13:05:01;99955.53;;;9.18;78.69
17362;BME280;8798;51.938;4.348;2023-03-14T13:07:32;99950.66;;;9.13;78.47
17362;BME280;8798;51.938;4.348;2023-03-14T13:10:05;99959.38;;;9.15;78.40
17362;BME280;8798;51.938;4.348;2023-03-14T13:12:46;99983.00;;;9.20;78.80
17362;BME280;8798;51.938;4.348;2023-03-14T13:15:19;99996.22;;;9.21;78.40
17362;BME280;8798;51.938;4.348;2023-03-14T13:17:49;99957.34;;;9.09;77.93
17362;BME280;8798;51.938;4.348;2023-03-14T13:20:23;99945.13;;;9.07;77.97
17362;BME280;8798;51.938;4.348;2023-03-14T13:22:52;99947.13;;;9.04;77.93
17362;BME280;8798;51.938;4.348;2023-03-14T13:25:21;99957.69;;;9.06;77.98
17362;BME280;8798;51.938;4.348;2023-03-14T13:27:52;99971.56;;;9.10;77.18
17362;BME280;8798;51.938;4.348;2023-03-14T13:30:24;99976.94;;;9.10;77.61
17362;BME280;8798;51.938;4.348;2023-03-14T13:32:54;99988.50;;;9.10;77.64
17362;BME280;8798;51.938;4.348;2023-03-14T13:35:25;100015.66;;;9.15;77.66
17362;BME280;8798;51.938;4.348;2023-03-14T13:37:58;100000.06;;;9.11;77.11